ADDS TAF Board (Experimental) INFO Settings
IDs: Format: Expanded Condensed

KPHX - Phoenix/Sky Harbor, AZ, US

Issued at 0227 UTC 01 Sep 2016
Updated at 0337 UTC 01 Sep 2016
Time0251Z 01/04Z 01/05Z 01/06Z 01/07Z 01/08Z 01/09Z 01/10Z 01/11Z 01/12Z 01/13Z 01/14Z 01/15Z 01/16Z
Type OBS PRVL PRVL PRVL PRVL PRVL PRVL PRVL PRVL PRVL PRVL PRVL PRVL PRVL
VIS 10 >6 >6 >6 >6 >6 >6 >6 >6 >6 >6 >6 >6 >6
CIG -- 120 120 120 120 120 120 120 120 120 120 120 120 120
Cover SCT BKN BKN BKN BKN BKN BKN BKN BKN BKN BKN BKN BKN BKN
FltCat VFR VFR VFR VFR VFR VFR VFR VFR VFR VFR VFR VFR VFR VFR
WX -- -- -- -- -- -- -- -- -- -- -- -- -- --
WDir 210 120 120 120 120 120 120 120 120 120 120 120 120 120
WSpd 4 10 10 10 8 8 8 8 8 8 8 8 8 8
WGst -- 20 20 20 -- -- -- -- -- -- -- -- -- --
R07/25
XWnd -3 -5 -5 -5 -4 -4 -4 -4 -4 -4 -4 -4 -4 -4
XGst -- -10 -10 -10 -- -- -- -- -- -- -- -- -- --
HWnd -2 9 9 9 7 7 7 7 7 7 7 7 7 7
HGst -- 17 17 17 -- -- -- -- -- -- -- -- -- --
R08/26
XWnd -3 -5 -5 -5 -4 -4 -4 -4 -4 -4 -4 -4 -4 -4
XGst -- -10 -10 -10 -- -- -- -- -- -- -- -- -- --
HWnd -2 9 9 9 7 7 7 7 7 7 7 7 7 7
HGst -- 17 17 17 -- -- -- -- -- -- -- -- -- --

Raw TAF
KPHX 010227Z 0102/0124 24005KT P6SM FEW120 SCT200
  FM010400 12010G20KT P6SM BKN120 BKN250
  FM010700 12008KT P6SM BKN120 BKN250
  FM012100 24006KT P6SM BKN120 BKN250


Raw METAR
KPHX 010251Z 21004KT 10SM FEW120 SCT230 38/12 A2977 RMK AO2 LTG DSNT E AND SE SLP059 OCNL LTGCGIC DSNT E AND SE CB DSNT E AND SE T03780122 53008
KPHX 010151Z 20004KT 10SM FEW120 SCT230 39/12 A2975 RMK AO2 SLP052 CB DSNT NE-E AND S T03890117
KPHX 010051Z COR 20005KT 10SM FEW100 FEW120 SCT230 39/12 A2974 RMK AO2 SLP048 CB DSNT NE-SE AND SW AND NW T03940117

METAR Board
Radar Display
Forecast Discussion

TAF Board Legend

Potential Impact
Threat None Slight Moderate High
Visibility (sm) ≥5.1 5.1>X≥3 3>X≥1 <1
Ceiling (100 ft) ≥30.1 30.1>X≥10 10>X≥5 <5
Wind Speed (kt) <10 10≤X<20 20≤X<30 ≥30
Wind Gust (kt) <15 15≤X<25 25≤X<35 ≥35
Weather No Wx Reported VCTS,-TS,-FZRA,SN TS,FZRA +TS,+FZRA,+SN